Custom Search

Airport METAR Reports

 

YMAV - Avalon Airport, Australia
Distance from station: 0 0km
Updated: 16/11/2018 08:00
Clear
Clear
 Wind from WNW
Wind: WNW 15 km/h
Temperature: 11°C
Dew Point: 8°C
Humidity: 82%
Barometer: 1021 hPa
Clouds: Clear
Visibility: 10 km
2018/11/15 21:00 YMAV 152100Z AUTO 29008KT 9999 // NCD 11/08 Q1021
YMML - Melbourne Intl A, Australia
Distance from station: NE 50km
Updated: 16/11/2018 08:00
Few Clouds
Few Clouds
 Wind from W
Wind: W 9 km/h
Temperature: 11°C
Dew Point: 8°C
Humidity: 82%
Barometer: 1021 hPa
Clouds: Few Clouds
Visibility: 10 km
Cloud details: Few Clouds 610 m
2018/11/15 21:00 YMML 152100Z 26005KT 9999 FEW020 11/08 Q1021
YMEN - Melbourne/Essend, Australia
Distance from station: NE 51km
Updated: 16/11/2018 08:00
Clear
Clear
 Wind from WNW
Wind: WNW 11 km/h
Temperature: 11°C
Dew Point: 10°C
Humidity: 94%
Barometer: 1021 hPa
Clouds: Clear
Visibility: 10 km
2018/11/15 21:00 YMEN 152100Z AUTO 29006KT 9999 // NCD 11/10 Q1021
 
YWGT - Wangaratta Arp, Australia
Distance from station: NE 241km
Updated: 16/11/2018 08:00
Clear
Clear
 Wind from S
Wind: S 6 km/h
Temperature: 14°C
Dew Point: 7°C
Humidity: 63%
Barometer: 1020 hPa
Clouds: Clear
Visibility: 10 km
2018/11/15 21:00 YWGT 152100Z AUTO 17003KT 9999 // NCD 14/07 Q1020
YMAY - Albury Airport, Australia
Distance from station: NE 308km
Updated: 16/11/2018 08:00
Clear
Clear
 Wind from SSE
Wind: SSE 11 km/h
Temperature: 15°C
Dew Point: 8°C
Humidity: 63%
Barometer: 1020 hPa
Clouds: Clear
Visibility: 10 km
2018/11/15 21:00 YMAY 152100Z AUTO 15006KT 9999 // NCD 15/08 Q1020
YMTG - Mount Gambier, Australia
Distance from station: W 326km
Updated: 16/11/2018 08:00
Clear
Clear
 Wind from WSW
Wind: WSW 4 km/h
Temperature: 8°C
Dew Point: 8°C
Humidity: 100%
Barometer: 1022 hPa
Clouds: Clear
Visibility: 10 km
2018/11/15 21:00 YMTG 152100Z AUTO 25002KT 9999 // NCD 08/08 Q1022
 
YNAR - Narrandera, Australia
Distance from station: NNE 413km
Updated: 16/11/2018 08:00

 Wind from ENE
Wind: ENE 20 km/h
Temperature: 16°C
Dew Point: 10°C
Humidity: 68%
Barometer: 1020 hPa
2018/11/15 21:00 YNAR 152100Z AUTO 06011KT //// // ////// 16/10 Q1020
YSWG - Wagga Wagga(Cv/M, Australia
Distance from station: NE 418km
Updated: 16/11/2018 08:00
Clear
Clear
 Wind from ENE
Wind: ENE 26 km/h
Temperature: 17°C
Dew Point: 8°C
Humidity: 56%
Barometer: 1020 hPa
Summary: Clear
Visibility: greater than 10 km
2018/11/15 21:00 YSWG 152100Z 07014KT CAVOK 17/08 Q1020
YCOM - Cooma Snowy Mtns, Australia
Distance from station: ENE 441km
Updated: 16/11/2018 08:00
Mostly cloudy
Mostly cloudy
 Wind from NNE
Wind: NNE 15 km/h
Temperature: 9°C
Wind Chill: 7°C
Dew Point: 6°C
Humidity: 82%
Barometer: 1022 hPa
Clouds: Mostly cloudy
Visibility: 10 km
Cloud details: Partly cloudy 366 m
Mostly cloudy 671 m
2018/11/15 21:00 YCOM 152100Z AUTO 03008KT 9999 // SCT012 BKN022 09/06 Q1022
 
YGTH - Griffith Arpt, Australia
Distance from station: NNE 444km
Updated: 16/11/2018 08:00
Clear
Clear
 Wind from ESE
Wind: ESE 9 km/h
Temperature: 16°C
Dew Point: 10°C
Humidity: 68%
Barometer: 1019 hPa
Clouds: Clear
Visibility: 10 km
2018/11/15 21:00 YGTH 152100Z AUTO 11005KT 9999 // NCD 16/10 Q1019
YMLT - Launceston Airpo, Australia
Distance from station: SSE 451km
Updated: 16/11/2018 08:00
Clear
Clear
 Wind from NNW
Wind: NNW 11 km/h
Temperature: 12°C
Dew Point: 7°C
Humidity: 72%
Barometer: 1022 hPa
Clouds: Clear
Visibility: 10 km
2018/11/15 21:00 YMLT 152100Z AUTO 34006KT 9999 // NCD 12/07 Q1022
YMIA - Mildura Arpt, Australia
Distance from station: NNW 474km
Updated: 16/11/2018 08:00
Clear
Clear
 Wind from ESE
Wind: ESE 15 km/h
Temperature: 15°C
Dew Point: 4°C
Humidity: 48%
Barometer: 1021 hPa
Clouds: Clear
Visibility: 10 km
2018/11/15 21:00 YMIA 152100Z AUTO 11008KT 9999 // NCD 15/04 Q1021
 
YMER - Merimbula Arpt, Australia
Distance from station: ENE 494km
Updated: 16/11/2018 08:00
Overcast
Overcast
 Wind from WNW
Wind: WNW 9 km/h
Temperature: 15°C
Dew Point: 10°C
Humidity: 72%
Barometer: 1022 hPa
Clouds: Overcast
Visibility: 10 km
Cloud details: Mostly cloudy 1067 m
Mostly cloudy 1219 m
Overcast 1676 m
2018/11/15 21:00 YMER 152100Z AUTO 30005KT 9999 // BKN035 BKN040 OVC055 15/10 Q1022
YSCB - Canberra (civ/Mi, Australia
Distance from station: NE 518km
Updated: 16/11/2018 08:09
Overcast
Overcast
 Wind from SSE
Wind: SSE 6 km/h
Temperature: 13°C
Dew Point: 7°C
Humidity: 67%
Barometer: 1022 hPa
Clouds: Overcast
Visibility: 10 km
Cloud details: Mostly cloudy 671 m
Overcast 1250 m
2018/11/15 21:09 YSCB 152109Z AUTO 16003KT 9999 // BKN022 OVC041 13/07 Q1022
YMHB - Hobart/Tasmania, Australia
Distance from station: SSE 590km
Updated: 16/11/2018 08:00
Mostly cloudy
Mostly cloudy
 Wind from NW
Wind: NW 11 km/h
Temperature: 11°C
Dew Point: 6°C
Humidity: 72%
Barometer: 1022 hPa
Clouds: Mostly cloudy
Visibility: 10 km
Cloud details: Few Clouds 549 m
Mostly cloudy 1829 m
2018/11/15 21:00 YMHB 152100Z 31006KT 9999 FEW018 BKN060 11/06 Q1022